KAGC

Allegheny County Airport

Pittsburgh, Pennsylvania, USA
METAR KAGC 181953Z 23012G21KT 10SM OVC009 06/03 A2996 RMK AO2 SLP158 T00560033
Observed Flight Rules
Dec-18 @ 19:53 UTC (31 minutes ago) Instrument Flight Rules
Wind Visibility Clouds
230° at 12 knots
 Gusting to 21 knots
10 miles
  • Overcast at 900' AGL
Temperatures Readings
Current 6°C / 43°F
Dewpoint 3°C / 37°F
Humidity 81%
Altimeter 29.96" Hg
Pressure 1015.8 hPa
Elevation 389
METAR KAGC 181953Z 23012G21KT 10SM OVC009 06/03 A2996 RMK AO2 SLP158 T00560033
Observed Flight Rules
Dec-18 @ 19:53 UTC
(31 minutes ago)
IFR
Wind Visibility
230° at 12 knots
 Gusting to 21 knots
10 miles
Clouds
  • Overcast at 900' AGL
Temperature Dewpoint
6°C / 43°F 3°C / 37°F
Humidity Altimeter Pressure
81% 29.96" Hg 1015.8 hPa